Time;durP1;ratioP1;P1;durP2;ratioP2;P2;SDS_P1;SDS_P2;PMS_P1;PMS_P2;Temp;Humidity;BMP_temperature;BMP_pressure;BME280_temperature;BME280_humidity;BME280_pressure;Samples;Min_cycle;Max_cycle;Signal;HPM_P1;HPM_P2
2022/12/22 03:27:39;;;;;;;22.53;15.83;;;;;;;;;;5095205;28;20172;-70
2022/12/22 03:30:05;;;;;;;21.20;16.53;;;;;;;;;;5095076;28;20577;-71
2022/12/22 03:32:31;;;;;;;21.10;15.07;;;;;;;;;;5094504;28;20698;-70
2022/12/22 03:34:57;;;;;;;20.93;15.77;;;;;;;;;;5093431;28;20234;-70
2022/12/22 03:37:23;;;;;;;22.67;15.63;;;;;;;;;;5094809;28;20177;-70
2022/12/22 03:39:49;;;;;;;20.07;15.33;;;;;;;;;;5093971;28;20201;-70
2022/12/22 03:47:44;;;;;;;22.23;15.60;;;;;;;;;;5094665;28;20172;-70
2022/12/22 03:50:10;;;;;;;24.97;15.67;;;;;;;;;;5094244;28;20196;-70
2022/12/22 03:52:36;;;;;;;17.73;13.37;;;;;;;;;;5094269;28;20210;-69
2022/12/22 03:55:02;;;;;;;20.53;14.63;;;;;;;;;;5094134;28;20218;-71
2022/12/22 03:57:28;;;;;;;18.20;14.57;;;;;;;;;;5092934;28;20169;-69
2022/12/22 03:59:54;;;;;;;19.80;13.83;;;;;;;;;;5093940;28;20176;-69
2022/12/22 04:02:20;;;;;;;18.33;13.80;;;;;;;;;;5094012;28;20173;-69
2022/12/22 04:04:45;;;;;;;17.07;13.27;;;;;;;;;;5092716;28;20181;-69
2022/12/22 04:07:11;;;;;;;16.73;12.67;;;;;;;;;;5092669;28;20212;-69
2022/12/22 04:12:52;;;;;;;20.33;13.87;;;;;;;;;;5093810;28;20185;-69
2022/12/22 04:15:08;;;;;;;18.80;12.40;;;;;;;;;;5094033;28;20199;-69
2022/12/22 04:17:34;;;;;;;18.20;14.63;;;;;;;;;;5092258;28;20173;-69
2022/12/22 04:20:00;;;;;;;22.43;16.40;;;;;;;;;;5093764;28;20288;-69
2022/12/22 04:22:26;;;;;;;22.33;17.70;;;;;;;;;;5093964;28;20242;-69
2022/12/22 04:24:52;;;;;;;23.60;17.73;;;;;;;;;;5093731;28;20177;-69
2022/12/22 04:27:18;;;;;;;20.90;16.63;;;;;;;;;;5093667;28;20181;-70
2022/12/22 04:29:43;;;;;;;29.20;16.67;;;;;;;;;;5093784;28;20264;-70
2022/12/22 04:32:09;;;;;;;20.13;16.03;;;;;;;;;;5097694;28;20201;-69
2022/12/22 04:34:35;;;;;;;18.43;14.67;;;;;;;;;;5093772;28;20173;-70
2022/12/22 04:37:01;;;;;;;36.47;16.87;;;;;;;;;;5092400;28;20195;-69
2022/12/22 04:39:27;;;;;;;25.17;15.97;;;;;;;;;;5093696;28;20637;-70
2022/12/22 04:41:53;;;;;;;22.30;15.17;;;;;;;;;;5091988;28;20711;-71
2022/12/22 04:44:19;;;;;;;20.53;14.27;;;;;;;;;;5092355;28;20572;-71
2022/12/22 04:46:45;;;;;;;25.47;18.73;;;;;;;;;;5093342;28;20181;-69
2022/12/22 04:49:11;;;;;;;34.80;24.63;;;;;;;;;;5093902;28;20230;-70
2022/12/22 04:51:37;;;;;;;29.97;18.50;;;;;;;;;;5092104;28;20610;-69
2022/12/22 04:54:03;;;;;;;30.80;23.13;;;;;;;;;;5093780;28;20181;-69
2022/12/22 04:56:29;;;;;;;32.37;24.70;;;;;;;;;;5093412;28;20230;-70
2022/12/22 04:58:55;;;;;;;30.10;22.93;;;;;;;;;;5092109;28;20181;-69
2022/12/22 05:01:21;;;;;;;34.97;25.47;;;;;;;;;;5093142;28;20204;-70
2022/12/22 05:03:47;;;;;;;33.40;23.13;;;;;;;;;;5093271;28;20181;-69
2022/12/22 05:06:14;;;;;;;85.33;23.73;;;;;;;;;;5093387;28;20173;-69
2022/12/22 05:08:40;;;;;;;18.87;14.57;;;;;;;;;;5093612;28;20179;-69
2022/12/22 05:11:06;;;;;;;17.37;13.93;;;;;;;;;;5092256;28;20209;-69
2022/12/22 05:13:32;;;;;;;20.10;12.43;;;;;;;;;;5093901;28;20234;-69
2022/12/22 05:16:04;;;;;;;24.10;17.00;;;;;;;;;;5093911;28;20177;-69
2022/12/22 05:18:30;;;;;;;25.00;15.33;;;;;;;;;;5092456;28;20267;-69
2022/12/22 05:20:56;;;;;;;21.60;15.50;;;;;;;;;;5094018;28;20723;-69
2022/12/22 05:23:22;;;;;;;22.27;15.73;;;;;;;;;;5099978;28;20676;-69
2022/12/22 05:25:48;;;;;;;44.70;33.73;;;;;;;;;;5093645;28;20279;-69
2022/12/22 05:28:14;;;;;;;27.87;18.33;;;;;;;;;;5096871;28;20173;-69
2022/12/22 05:30:40;;;;;;;19.57;14.80;;;;;;;;;;5097067;28;20223;-70
2022/12/22 05:33:06;;;;;;;21.27;16.07;;;;;;;;;;5095608;28;20314;-69
2022/12/22 05:35:32;;;;;;;18.93;14.27;;;;;;;;;;5096801;28;20227;-69
2022/12/22 05:37:58;;;;;;;22.37;14.07;;;;;;;;;;5095357;28;20192;-69
2022/12/22 05:40:24;;;;;;;19.23;13.60;;;;;;;;;;5094958;28;20223;-69
2022/12/22 05:42:50;;;;;;;19.30;14.87;;;;;;;;;;5095373;28;20187;-70
2022/12/22 05:45:17;;;;;;;19.90;15.83;;;;;;;;;;5095367;28;20209;-71
2022/12/22 05:47:44;;;;;;;25.00;19.37;;;;;;;;;;5097111;28;20304;-70
2022/12/22 05:50:10;;;;;;;29.33;20.30;;;;;;;;;;5095003;28;20247;-69
2022/12/22 05:52:36;;;;;;;26.37;23.63;;;;;;;;;;5095381;28;20223;-69
2022/12/22 05:55:03;;;;;;;30.10;26.47;;;;;;;;;;5096863;28;20173;-69
2022/12/22 05:57:29;;;;;;;32.87;27.10;;;;;;;;;;5096224;28;20203;-69
2022/12/22 05:59:55;;;;;;;33.17;29.47;;;;;;;;;;5096537;28;20660;-69
2022/12/22 06:02:21;;;;;;;39.73;33.13;;;;;;;;;;5096763;28;20250;-69
2022/12/22 06:04:47;;;;;;;44.63;37.67;;;;;;;;;;5096051;28;20181;-69
2022/12/22 06:07:13;;;;;;;43.13;34.27;;;;;;;;;;5096407;28;20174;-70
2022/12/22 06:09:39;;;;;;;28.37;25.00;;;;;;;;;;5096494;28;20294;-69
2022/12/22 06:12:05;;;;;;;29.00;24.83;;;;;;;;;;5094710;28;20217;-70
2022/12/22 06:14:31;;;;;;;31.33;24.47;;;;;;;;;;5098249;28;20197;-69
2022/12/22 06:16:57;;;;;;;29.07;23.83;;;;;;;;;;5094834;28;20267;-71
2022/12/22 06:19:23;;;;;;;29.87;24.70;;;;;;;;;;5094564;28;20562;-69
2022/12/22 06:21:49;;;;;;;35.43;25.77;;;;;;;;;;5094466;28;20287;-69
2022/12/22 06:24:15;;;;;;;26.67;21.67;;;;;;;;;;5096304;28;20541;-70
2022/12/22 06:26:41;;;;;;;30.77;22.53;;;;;;;;;;5094494;28;20177;-70
2022/12/22 06:29:07;;;;;;;29.83;21.90;;;;;;;;;;5096024;28;20682;-69
2022/12/22 06:31:33;;;;;;;30.73;22.33;;;;;;;;;;5095728;28;20235;-70
2022/12/22 06:33:59;;;;;;;30.90;21.50;;;;;;;;;;5096016;28;20173;-69
2022/12/22 06:36:25;;;;;;;29.03;21.37;;;;;;;;;;5095494;28;20181;-70
2022/12/22 06:38:51;;;;;;;32.43;21.20;;;;;;;;;;5095583;28;20180;-70
2022/12/22 06:44:02;;;;;;;30.77;21.13;;;;;;;;;;5096385;28;20176;-70
2022/12/22 06:46:28;;;;;;;33.70;22.43;;;;;;;;;;5095850;28;20173;-70
2022/12/22 06:48:53;;;;;;;34.00;22.30;;;;;;;;;;5094326;28;20270;-69
2022/12/22 06:51:19;;;;;;;29.87;21.60;;;;;;;;;;5095316;28;20243;-70
2022/12/22 06:53:45;;;;;;;34.27;21.63;;;;;;;;;;5095474;28;20181;-69
2022/12/22 06:56:11;;;;;;;32.23;21.40;;;;;;;;;;5094095;28;20231;-69
2022/12/22 06:58:37;;;;;;;37.10;21.27;;;;;;;;;;5094003;28;20180;-69
2022/12/22 07:01:03;;;;;;;37.73;22.87;;;;;;;;;;5094973;28;20284;-69
2022/12/22 07:03:29;;;;;;;36.67;22.53;;;;;;;;;;5095248;28;20181;-69
2022/12/22 07:05:55;;;;;;;33.33;21.83;;;;;;;;;;5096925;28;20185;-69
2022/12/22 07:08:21;;;;;;;36.20;22.97;;;;;;;;;;5095041;28;20188;-69
2022/12/22 07:10:59;;;;;;;38.30;23.93;;;;;;;;;;5093489;28;20216;-69
2022/12/22 07:13:26;;;;;;;41.33;25.17;;;;;;;;;;5094857;28;20149;-69
2022/12/22 07:15:53;;;;;;;47.07;26.40;;;;;;;;;;5094826;28;20251;-70
2022/12/22 07:18:19;;;;;;;43.17;25.63;;;;;;;;;;5094753;28;20188;-69
2022/12/22 07:20:45;;;;;;;44.20;26.87;;;;;;;;;;5094816;28;20197;-69
2022/12/22 07:23:11;;;;;;;43.70;26.93;;;;;;;;;;5093406;28;20276;-69
2022/12/22 07:25:37;;;;;;;46.77;27.63;;;;;;;;;;5093253;28;20177;-69
2022/12/22 07:28:03;;;;;;;43.53;26.77;;;;;;;;;;5094601;28;20184;-69
2022/12/22 07:30:29;;;;;;;47.43;28.07;;;;;;;;;;5094206;28;20201;-69
2022/12/22 07:32:55;;;;;;;43.07;27.63;;;;;;;;;;5094030;28;20183;-69
2022/12/22 07:35:21;;;;;;;43.53;27.33;;;;;;;;;;5092854;28;20223;-69
2022/12/22 07:37:47;;;;;;;45.37;27.67;;;;;;;;;;5094364;28;20200;-69
2022/12/22 07:40:13;;;;;;;48.90;27.20;;;;;;;;;;5092677;28;20251;-70
2022/12/22 07:42:45;;;;;;;44.47;28.33;;;;;;;;;;5094185;28;20177;-68
2022/12/22 07:45:12;;;;;;;50.00;27.03;;;;;;;;;;5094316;28;20177;-68
2022/12/22 07:47:38;;;;;;;48.23;28.07;;;;;;;;;;5094524;28;20192;-70
2022/12/22 07:52:49;;;;;;;50.83;26.07;;;;;;;;;;5094765;28;20172;-69
2022/12/22 07:55:15;;;;;;;53.30;27.17;;;;;;;;;;5096289;28;20188;-69
2022/12/22 07:57:41;;;;;;;55.87;27.27;;;;;;;;;;5094373;28;20180;-69
2022/12/22 08:00:07;;;;;;;60.27;27.13;;;;;;;;;;5093988;28;20561;-68
2022/12/22 08:02:33;;;;;;;62.33;28.60;;;;;;;;;;5093840;28;20177;-69
2022/12/22 08:04:59;;;;;;;66.63;28.83;;;;;;;;;;5093919;28;20200;-69
2022/12/22 08:07:25;;;;;;;66.23;29.23;;;;;;;;;;5092578;28;20177;-69
2022/12/22 08:09:51;;;;;;;66.00;29.37;;;;;;;;;;5093856;28;20720;-69
2022/12/22 08:12:17;;;;;;;69.93;29.43;;;;;;;;;;5092575;28;20299;-69
2022/12/22 08:14:44;;;;;;;66.20;28.20;;;;;;;;;;5092631;28;20184;-70
2022/12/22 08:17:11;;;;;;;76.83;29.67;;;;;;;;;;5093767;28;20164;-69
2022/12/22 08:19:37;;;;;;;73.10;28.67;;;;;;;;;;5093803;28;20196;-69
2022/12/22 08:22:03;;;;;;;79.10;29.23;;;;;;;;;;5093662;28;20204;-69
2022/12/22 08:24:29;;;;;;;78.53;28.73;;;;;;;;;;5092582;28;20208;-69
2022/12/22 08:26:58;;;;;;;76.33;26.87;;;;;;;;;;5092389;28;20177;-70
2022/12/22 08:29:27;;;;;;;78.37;27.90;;;;;;;;;;5094262;28;20177;-70
2022/12/22 08:31:53;;;;;;;92.87;31.23;;;;;;;;;;5092188;28;20219;-69
2022/12/22 08:34:19;;;;;;;81.90;28.27;;;;;;;;;;5092457;28;20185;-70
2022/12/22 08:36:47;;;;;;;85.07;30.10;;;;;;;;;;5092314;28;20186;-69
2022/12/22 08:39:13;;;;;;;90.80;30.63;;;;;;;;;;5093760;28;20169;-69
2022/12/22 08:41:51;;;;;;;80.27;30.57;;;;;;;;;;5091897;28;20689;-68
2022/12/22 08:44:19;;;;;;;87.90;31.20;;;;;;;;;;5092160;28;20180;-68
2022/12/22 08:46:45;;;;;;;93.30;31.23;;;;;;;;;;5094682;28;20260;-68
2022/12/22 08:49:11;;;;;;;91.03;31.33;;;;;;;;;;5093657;28;20614;-69
2022/12/22 08:51:37;;;;;;;84.70;30.07;;;;;;;;;;5092014;28;20209;-69
2022/12/22 08:54:03;;;;;;;77.07;28.67;;;;;;;;;;5094250;28;20621;-69
2022/12/22 08:56:30;;;;;;;83.77;28.50;;;;;;;;;;5093531;28;20253;-70
2022/12/22 08:58:56;;;;;;;84.97;29.20;;;;;;;;;;5092410;28;20554;-69
2022/12/22 09:01:22;;;;;;;88.40;30.43;;;;;;;;;;5111524;22;20233;-70
2022/12/22 09:03:52;;;;;;;82.73;28.67;;;;;;;;;;5098384;28;20181;-70
2022/12/22 09:06:19;;;;;;;70.73;27.73;;;;;;;;;;5079301;28;20183;-70
2022/12/22 09:08:45;;;;;;;79.60;30.23;;;;;;;;;;5098072;28;20188;-70
2022/12/22 09:11:11;;;;;;;74.67;28.23;;;;;;;;;;5078778;28;20201;-69
2022/12/22 09:13:37;;;;;;;71.17;27.93;;;;;;;;;;5098112;28;20180;-72
2022/12/22 09:16:04;;;;;;;60.83;25.77;;;;;;;;;;5079980;28;20177;-71
2022/12/22 09:18:30;;;;;;;61.60;25.10;;;;;;;;;;5079171;28;20181;-70
2022/12/22 09:20:56;;;;;;;54.13;23.33;;;;;;;;;;5096980;28;20614;-71
2022/12/22 09:23:22;;;;;;;54.33;25.33;;;;;;;;;;5078875;28;20181;-71
2022/12/22 09:25:48;;;;;;;51.07;22.57;;;;;;;;;;5078416;28;20188;-71
2022/12/22 09:28:14;;;;;;;56.90;25.43;;;;;;;;;;5096550;28;20217;-72
2022/12/22 09:30:40;;;;;;;57.40;24.53;;;;;;;;;;5096684;28;20197;-72
2022/12/22 09:33:06;;;;;;;64.03;26.97;;;;;;;;;;5096965;28;20177;-71
2022/12/22 09:35:32;;;;;;;61.07;27.97;;;;;;;;;;5096622;28;20196;-71
2022/12/22 09:37:58;;;;;;;58.43;25.43;;;;;;;;;;5096498;28;20549;-71
2022/12/22 09:40:25;;;;;;;62.77;28.17;;;;;;;;;;5078316;28;20326;-71
2022/12/22 09:42:51;;;;;;;60.73;27.87;;;;;;;;;;5096240;28;20184;-71
2022/12/22 09:45:20;;;;;;;62.63;28.10;;;;;;;;;;5097188;28;20177;-71
2022/12/22 09:47:52;;;;;;;65.20;29.23;;;;;;;;;;5078318;28;20189;-72
2022/12/22 09:50:20;;;;;;;65.20;28.80;;;;;;;;;;5096237;28;20593;-70
2022/12/22 09:52:47;;;;;;;56.60;27.13;;;;;;;;;;5077875;28;20695;-71
2022/12/22 09:55:17;;;;;;;63.23;30.20;;;;;;;;;;5077795;28;20173;-70
2022/12/22 09:57:43;;;;;;;63.70;29.73;;;;;;;;;;5077825;28;20185;-72
2022/12/22 10:00:16;;;;;;;63.83;29.63;;;;;;;;;;5095885;28;20209;-72
2022/12/22 10:03:05;;;;;;;68.20;30.57;;;;;;;;;;5096268;28;20256;-71
2022/12/22 10:05:42;;;;;;;63.10;29.27;;;;;;;;;;5051533;28;20191;-72
2022/12/22 10:08:13;;;;;;;66.23;29.90;;;;;;;;;;5096982;28;20204;-72
2022/12/22 10:10:39;;;;;;;63.50;30.77;;;;;;;;;;5078486;28;20295;-72
2022/12/22 10:13:05;;;;;;;63.53;27.83;;;;;;;;;;5078326;28;20196;-70
2022/12/22 10:15:39;;;;;;;70.20;29.77;;;;;;;;;;5095910;28;20177;-71
2022/12/22 10:18:10;;;;;;;65.40;30.07;;;;;;;;;;5095725;28;20282;-70
2022/12/22 10:20:38;;;;;;;60.13;29.57;;;;;;;;;;5095442;28;20193;-70
2022/12/22 10:23:12;;;;;;;61.93;29.80;;;;;;;;;;5077459;28;20177;-70
2022/12/22 10:25:38;;;;;;;61.97;29.80;;;;;;;;;;5095733;28;20176;-69
2022/12/22 10:28:07;;;;;;;59.60;29.27;;;;;;;;;;5095481;28;20185;-70
2022/12/22 10:30:35;;;;;;;55.47;28.03;;;;;;;;;;5077127;28;20644;-71
2022/12/22 10:33:02;;;;;;;54.07;28.83;;;;;;;;;;5077117;28;20183;-70
2022/12/22 10:35:37;;;;;;;54.20;28.80;;;;;;;;;;5095433;28;20605;-69
2022/12/22 10:38:13;;;;;;;60.70;28.00;;;;;;;;;;5077023;28;20256;-70
2022/12/22 10:40:43;;;;;;;59.30;29.53;;;;;;;;;;5095761;28;20246;-71
2022/12/22 10:43:09;;;;;;;57.47;30.03;;;;;;;;;;5078265;28;20189;-70
2022/12/22 10:45:35;;;;;;;63.73;29.33;;;;;;;;;;5078118;28;20573;-71
2022/12/22 10:48:01;;;;;;;55.87;29.70;;;;;;;;;;5095893;28;20173;-71
2022/12/22 10:50:27;;;;;;;65.90;29.50;;;;;;;;;;5095394;28;20193;-71
2022/12/22 10:52:55;;;;;;;68.23;32.63;;;;;;;;;;5095322;28;20184;-69
2022/12/22 10:55:31;;;;;;;61.30;31.43;;;;;;;;;;5077240;28;20185;-70
2022/12/22 10:58:09;;;;;;;58.00;28.87;;;;;;;;;;5077114;28;20180;-71
2022/12/22 11:00:36;;;;;;;57.87;30.33;;;;;;;;;;5076460;28;20224;-71
2022/12/22 11:03:03;;;;;;;56.53;30.73;;;;;;;;;;5095225;28;20184;-71
2022/12/22 11:05:31;;;;;;;58.63;30.43;;;;;;;;;;5076580;28;20188;-71
2022/12/22 11:08:00;;;;;;;54.23;29.33;;;;;;;;;;5094684;28;20177;-70
2022/12/22 11:10:27;;;;;;;51.73;28.43;;;;;;;;;;5095101;28;20200;-71
2022/12/22 11:13:04;;;;;;;54.57;29.30;;;;;;;;;;5076470;28;20181;-71
2022/12/22 11:15:30;;;;;;;52.83;28.57;;;;;;;;;;5076572;28;20242;-70
2022/12/22 11:17:59;;;;;;;53.37;29.33;;;;;;;;;;5076178;28;20590;-71
2022/12/22 11:20:44;;;;;;;52.07;28.50;;;;;;;;;;5094651;28;20341;-70
2022/12/22 11:23:33;;;;;;;48.57;26.60;;;;;;;;;;5094541;28;20165;-70
2022/12/22 11:26:08;;;;;;;44.00;26.87;;;;;;;;;;5049642;28;20185;-71
2022/12/22 11:28:53;;;;;;;40.67;25.57;;;;;;;;;;5095065;28;20210;-71
2022/12/22 11:31:28;;;;;;;40.47;25.13;;;;;;;;;;5094439;28;20596;-70
2022/12/22 11:34:02;;;;;;;39.77;24.33;;;;;;;;;;5094603;28;20173;-71
2022/12/22 11:36:51;;;;;;;36.87;24.67;;;;;;;;;;5076325;28;20169;-71
2022/12/22 11:39:21;;;;;;;38.50;24.37;;;;;;;;;;5048240;28;20230;-69
2022/12/22 11:41:57;;;;;;;36.60;24.03;;;;;;;;;;5094383;28;20200;-70
2022/12/22 11:44:30;;;;;;;36.33;23.73;;;;;;;;;;5076402;28;20180;-70
2022/12/22 11:47:12;;;;;;;38.40;24.30;;;;;;;;;;5094606;28;20165;-70
2022/12/22 11:49:38;;;;;;;34.87;20.33;;;;;;;;;;5094361;28;20248;-70
2022/12/22 11:52:23;;;;;;;25.80;19.77;;;;;;;;;;5094299;28;20280;-71
2022/12/22 11:55:07;;;;;;;30.33;18.47;;;;;;;;;;5094128;28;20184;-69
2022/12/22 11:57:43;;;;;;;23.67;18.73;;;;;;;;;;5094035;28;20205;-70
2022/12/22 12:00:14;;;;;;;23.80;17.50;;;;;;;;;;5075499;28;20212;-70
2022/12/22 12:02:58;;;;;;;25.83;17.87;;;;;;;;;;5093978;28;20249;-70
2022/12/22 12:05:27;;;;;;;28.97;19.10;;;;;;;;;;5075509;28;20246;-70
2022/12/22 12:08:07;;;;;;;23.73;17.87;;;;;;;;;;5094064;28;20184;-70
2022/12/22 12:10:44;;;;;;;27.63;18.77;;;;;;;;;;5093522;28;20204;-69
2022/12/22 12:13:16;;;;;;;28.97;18.70;;;;;;;;;;5075941;28;20169;-71
2022/12/22 12:16:00;;;;;;;25.60;18.30;;;;;;;;;;5075614;28;20181;-71
2022/12/22 12:18:35;;;;;;;23.03;16.23;;;;;;;;;;5075530;28;20184;-69
2022/12/22 12:21:23;;;;;;;25.30;16.27;;;;;;;;;;5075550;28;20196;-69
2022/12/22 12:23:59;;;;;;;24.23;16.60;;;;;;;;;;5075994;28;20230;-69
2022/12/22 12:26:30;;;;;;;25.03;17.87;;;;;;;;;;5094326;28;20177;-70
2022/12/22 12:29:02;;;;;;;23.70;16.43;;;;;;;;;;5076120;28;20203;-70
2022/12/22 12:31:32;;;;;;;27.60;16.80;;;;;;;;;;5075740;28;20204;-71
2022/12/22 12:34:02;;;;;;;23.33;18.27;;;;;;;;;;5075784;28;20184;-71
2022/12/22 12:36:28;;;;;;;22.53;18.23;;;;;;;;;;5096621;28;20156;-71
2022/12/22 12:38:54;;;;;;;27.30;18.97;;;;;;;;;;5097885;28;20179;-70
2022/12/22 12:41:26;;;;;;;27.07;20.17;;;;;;;;;;5097788;28;20192;-71
2022/12/22 12:43:53;;;;;;;26.47;20.70;;;;;;;;;;5079766;28;20181;-70
2022/12/22 12:46:55;;;;;;;27.07;21.33;;;;;;;;;;5079772;28;20267;-70
2022/12/22 12:49:36;;;;;;;25.23;20.73;;;;;;;;;;5035464;28;20249;-71
2022/12/22 12:52:08;;;;;;;27.77;21.57;;;;;;;;;;5091327;28;20220;-70
2022/12/22 12:54:38;;;;;;;29.60;21.30;;;;;;;;;;5079591;28;20173;-70
2022/12/22 12:57:23;;;;;;;28.07;21.17;;;;;;;;;;5097850;28;20196;-69
2022/12/22 12:59:50;;;;;;;27.17;22.43;;;;;;;;;;5097750;28;20192;-71
2022/12/22 13:02:36;;;;;;;27.80;22.67;;;;;;;;;;5097934;28;20617;-69
2022/12/22 13:05:11;;;;;;;26.47;21.10;;;;;;;;;;5079187;28;20188;-70
2022/12/22 13:07:55;;;;;;;30.53;22.13;;;;;;;;;;5097626;28;20259;-71
2022/12/22 13:10:25;;;;;;;30.97;21.33;;;;;;;;;;5097207;28;20335;-73
2022/12/22 13:12:52;;;;;;;32.20;22.00;;;;;;;;;;5097159;28;20197;-71
2022/12/22 13:15:27;;;;;;;27.93;20.70;;;;;;;;;;5096905;28;20515;-70
2022/12/22 13:17:53;;;;;;;27.23;19.37;;;;;;;;;;5096871;28;20261;-71
2022/12/22 13:20:23;;;;;;;24.73;18.03;;;;;;;;;;5096768;28;20571;-71
2022/12/22 13:22:51;;;;;;;25.70;18.60;;;;;;;;;;5097719;28;20268;-70
2022/12/22 13:25:18;;;;;;;25.00;17.97;;;;;;;;;;5097221;28;20184;-70
2022/12/22 13:27:44;;;;;;;24.20;17.77;;;;;;;;;;5096748;28;20189;-70
2022/12/22 13:30:17;;;;;;;21.80;16.83;;;;;;;;;;5097058;28;20555;-70
2022/12/22 13:32:45;;;;;;;22.90;16.20;;;;;;;;;;5097267;28;20276;-70
2022/12/22 13:35:22;;;;;;;20.10;15.77;;;;;;;;;;5097581;28;20169;-69
2022/12/22 13:37:49;;;;;;;20.50;14.27;;;;;;;;;;5078552;28;20740;-71
2022/12/22 13:40:18;;;;;;;18.73;14.70;;;;;;;;;;5078212;28;20661;-70
2022/12/22 13:42:52;;;;;;;21.70;14.67;;;;;;;;;;5096611;28;20517;-71
2022/12/22 13:45:18;;;;;;;17.17;13.50;;;;;;;;;;5096483;28;20218;-71
2022/12/22 13:47:45;;;;;;;16.10;13.97;;;;;;;;;;5095820;28;20201;-72
2022/12/22 13:50:25;;;;;;;19.70;14.47;;;;;;;;;;5078246;28;20202;-71
2022/12/22 13:52:52;;;;;;;18.70;13.47;;;;;;;;;;5078462;28;20201;-71
2022/12/22 13:55:21;;;;;;;23.20;14.97;;;;;;;;;;5097543;28;20219;-71
2022/12/22 13:57:47;;;;;;;17.03;13.20;;;;;;;;;;5096743;28;20569;-71
2022/12/22 14:00:17;;;;;;;19.67;13.47;;;;;;;;;;5096168;28;20283;-71
2022/12/22 14:02:44;;;;;;;18.93;13.47;;;;;;;;;;5096248;28;20188;-71
2022/12/22 14:05:11;;;;;;;17.27;13.33;;;;;;;;;;5096169;28;20177;-70
2022/12/22 14:07:37;;;;;;;16.63;12.83;;;;;;;;;;5096396;28;20177;-71
2022/12/22 14:10:03;;;;;;;17.57;13.60;;;;;;;;;;5077770;28;20208;-71
2022/12/22 14:12:30;;;;;;;17.77;11.97;;;;;;;;;;5077799;28;20233;-71
2022/12/22 14:14:58;;;;;;;16.33;12.07;;;;;;;;;;5095842;28;20255;-69
2022/12/22 14:17:26;;;;;;;17.47;13.27;;;;;;;;;;5095766;28;20170;-68
2022/12/22 14:19:54;;;;;;;18.07;14.40;;;;;;;;;;5077643;28;20685;-71
2022/12/22 14:22:33;;;;;;;18.80;15.33;;;;;;;;;;5078051;28;20180;-70
2022/12/22 14:25:07;;;;;;;17.70;15.03;;;;;;;;;;5095943;28;20588;-71
2022/12/22 14:27:36;;;;;;;37.70;25.80;;;;;;;;;;5095912;28;20190;-70
2022/12/22 14:30:04;;;;;;;44.40;31.73;;;;;;;;;;5095909;28;20665;-71
2022/12/22 14:32:33;;;;;;;28.53;23.73;;;;;;;;;;5095370;28;20197;-70
2022/12/22 14:34:59;;;;;;;24.43;17.73;;;;;;;;;;5077416;28;20181;-71
2022/12/22 14:37:25;;;;;;;21.53;14.67;;;;;;;;;;5095856;28;20321;-71
2022/12/22 14:39:55;;;;;;;28.07;21.03;;;;;;;;;;5077665;28;20244;-70
2022/12/22 14:42:21;;;;;;;17.77;13.00;;;;;;;;;;5095246;28;20184;-70
2022/12/22 14:44:47;;;;;;;26.43;16.80;;;;;;;;;;5095796;28;20258;-70
2022/12/22 14:47:18;;;;;;;24.47;21.87;;;;;;;;;;5076987;28;20219;-70
2022/12/22 14:49:46;;;;;;;23.53;19.40;;;;;;;;;;5076878;28;20178;-70
2022/12/22 14:52:18;;;;;;;17.00;13.63;;;;;;;;;;5076876;28;20200;-71
2022/12/22 14:54:49;;;;;;;21.67;14.20;;;;;;;;;;5094979;28;20173;-69
2022/12/22 14:57:17;;;;;;;17.37;13.43;;;;;;;;;;5076972;28;20184;-71
2022/12/22 14:59:57;;;;;;;17.63;14.00;;;;;;;;;;5094431;28;20213;-71
2022/12/22 15:02:29;;;;;;;17.53;13.87;;;;;;;;;;5095289;28;20171;-71
2022/12/22 15:05:14;;;;;;;18.07;13.80;;;;;;;;;;5094876;28;20264;-71
2022/12/22 15:07:47;;;;;;;18.17;12.37;;;;;;;;;;5076993;28;20192;-71
2022/12/22 15:10:13;;;;;;;16.80;12.57;;;;;;;;;;5077458;28;20220;-71
2022/12/22 15:12:39;;;;;;;17.37;12.07;;;;;;;;;;5094682;28;20219;-72
2022/12/22 15:15:12;;;;;;;13.27;11.53;;;;;;;;;;5094953;28;20177;-73
2022/12/22 15:17:38;;;;;;;17.67;13.13;;;;;;;;;;5076740;28;20169;-71
2022/12/22 15:20:04;;;;;;;16.63;12.93;;;;;;;;;;5094614;28;20201;-71
2022/12/22 15:22:30;;;;;;;14.30;11.10;;;;;;;;;;5076363;28;20182;-70
2022/12/22 15:24:56;;;;;;;10.67;9.27;;;;;;;;;;5076282;28;20204;-70
2022/12/22 15:27:22;;;;;;;11.27;8.93;;;;;;;;;;5094934;28;20204;-71
2022/12/22 15:29:48;;;;;;;12.27;9.67;;;;;;;;;;5094492;28;20181;-71
2022/12/22 15:32:14;;;;;;;12.43;10.90;;;;;;;;;;5094380;28;20197;-71
2022/12/22 15:34:41;;;;;;;46.07;39.33;;;;;;;;;;5076245;28;20173;-70
2022/12/22 15:37:10;;;;;;;13.30;10.93;;;;;;;;;;5076127;28;20181;-70
2022/12/22 15:39:36;;;;;;;22.17;17.53;;;;;;;;;;5094171;28;20542;-71
2022/12/22 15:42:02;;;;;;;13.30;11.57;;;;;;;;;;5094314;28;20185;-76
2022/12/22 15:44:28;;;;;;;24.67;20.03;;;;;;;;;;5094201;28;20173;-69
2022/12/22 15:46:55;;;;;;;11.33;10.17;;;;;;;;;;5094504;28;20256;-70
2022/12/22 15:49:22;;;;;;;15.50;11.50;;;;;;;;;;5094263;28;20629;-71
2022/12/22 15:51:49;;;;;;;27.60;21.83;;;;;;;;;;5094099;28;20209;-71
2022/12/22 15:54:16;;;;;;;13.47;12.07;;;;;;;;;;5094542;28;20555;-69
2022/12/22 15:56:42;;;;;;;21.30;15.17;;;;;;;;;;5094001;28;20177;-70
2022/12/22 15:59:12;;;;;;;23.10;17.57;;;;;;;;;;5094020;28;20173;-70
2022/12/22 16:01:38;;;;;;;21.17;15.67;;;;;;;;;;5075601;28;20213;-69
2022/12/22 16:04:04;;;;;;;17.37;14.30;;;;;;;;;;5093868;28;20177;-70
2022/12/22 16:06:30;;;;;;;18.60;16.10;;;;;;;;;;5094051;28;20552;-69
2022/12/22 16:08:56;;;;;;;16.07;14.40;;;;;;;;;;5094574;28;20177;-73
2022/12/22 16:11:22;;;;;;;20.13;16.83;;;;;;;;;;5077072;28;20220;-68
2022/12/22 16:13:49;;;;;;;32.13;17.03;;;;;;;;;;5077457;28;20181;-69
2022/12/22 16:16:15;;;;;;;43.43;18.37;;;;;;;;;;5095581;28;20173;-70
2022/12/22 16:18:41;;;;;;;25.00;18.27;;;;;;;;;;5076793;28;20634;-70
2022/12/22 16:21:11;;;;;;;43.97;19.10;;;;;;;;;;5095272;28;20598;-71
2022/12/22 16:23:38;;;;;;;25.13;18.40;;;;;;;;;;5095348;28;20181;-72
2022/12/22 16:26:04;;;;;;;33.30;22.43;;;;;;;;;;5094962;28;20261;-74
2022/12/22 16:28:31;;;;;;;23.37;19.70;;;;;;;;;;5094897;28;20242;-71
2022/12/22 16:30:58;;;;;;;20.60;17.33;;;;;;;;;;5076368;28;20201;-71
2022/12/22 16:33:24;;;;;;;32.90;29.57;;;;;;;;;;5094330;28;20655;-69
2022/12/22 16:35:50;;;;;;;39.83;19.73;;;;;;;;;;5076039;28;20267;-72
2022/12/22 16:38:16;;;;;;;22.83;20.33;;;;;;;;;;5076201;28;20526;-71
2022/12/22 16:40:50;;;;;;;42.93;23.10;;;;;;;;;;5093951;28;20193;-70
2022/12/22 16:43:18;;;;;;;42.33;23.93;;;;;;;;;;5095002;28;20234;-75
2022/12/22 16:45:44;;;;;;;39.23;28.93;;;;;;;;;;5075745;28;20277;-72
2022/12/22 16:48:24;;;;;;;36.73;29.73;;;;;;;;;;5094276;28;20180;-75
2022/12/22 16:50:50;;;;;;;40.97;30.13;;;;;;;;;;5094234;28;20201;-75
2022/12/22 16:53:16;;;;;;;38.77;28.67;;;;;;;;;;5093539;28;20212;-73
2022/12/22 16:55:42;;;;;;;40.70;32.47;;;;;;;;;;5093477;28;20173;-72
2022/12/22 16:58:11;;;;;;;33.83;24.70;;;;;;;;;;5093707;28;20246;-72
2022/12/22 17:00:38;;;;;;;34.23;25.07;;;;;;;;;;5093226;28;20209;-72
2022/12/22 17:03:06;;;;;;;34.70;23.40;;;;;;;;;;5093314;28;20173;-72
2022/12/22 17:05:36;;;;;;;30.23;22.63;;;;;;;;;;5093379;28;20181;-71
2022/12/22 17:08:05;;;;;;;31.13;23.30;;;;;;;;;;5093244;28;20177;-73
2022/12/22 17:10:31;;;;;;;30.20;23.60;;;;;;;;;;5093369;28;20236;-72
2022/12/22 17:12:57;;;;;;;42.00;25.33;;;;;;;;;;5093307;28;20200;-72
2022/12/22 17:15:23;;;;;;;44.17;26.57;;;;;;;;;;5075197;28;20173;-70
2022/12/22 17:17:50;;;;;;;36.53;24.83;;;;;;;;;;5093253;28;20257;-74
2022/12/22 17:20:17;;;;;;;74.57;28.90;;;;;;;;;;5074934;28;20197;-72
2022/12/22 17:22:54;;;;;;;28.10;20.83;;;;;;;;;;5096073;28;20268;-71
2022/12/22 17:25:24;;;;;;;34.00;29.80;;;;;;;;;;5097087;28;20176;-73
2022/12/22 17:27:50;;;;;;;26.43;19.40;;;;;;;;;;5097253;28;20173;-74
2022/12/22 17:30:21;;;;;;;29.77;23.33;;;;;;;;;;5079094;28;20205;-76
2022/12/22 17:32:47;;;;;;;29.27;25.07;;;;;;;;;;5097837;28;20201;-73
2022/12/22 17:35:14;;;;;;;29.53;20.97;;;;;;;;;;5096776;28;20633;-72
2022/12/22 17:37:40;;;;;;;24.00;19.17;;;;;;;;;;5078663;28;20307;-74
2022/12/22 17:40:06;;;;;;;28.37;21.03;;;;;;;;;;5096571;28;20201;-73
2022/12/22 17:42:32;;;;;;;27.83;20.50;;;;;;;;;;5078475;28;20653;-73
2022/12/22 17:44:58;;;;;;;26.90;20.63;;;;;;;;;;5096623;28;20207;-73
2022/12/22 17:47:24;;;;;;;21.27;17.73;;;;;;;;;;5078392;28;20185;-73
2022/12/22 17:49:50;;;;;;;22.60;17.47;;;;;;;;;;5096300;28;20583;-72
2022/12/22 17:52:16;;;;;;;26.23;18.37;;;;;;;;;;5096484;28;20209;-72
2022/12/22 17:54:42;;;;;;;25.20;18.77;;;;;;;;;;5096625;28;20657;-73
2022/12/22 17:57:10;;;;;;;30.77;21.53;;;;;;;;;;5078373;28;20192;-72
2022/12/22 17:59:36;;;;;;;32.93;21.13;;;;;;;;;;5097298;28;20187;-77
2022/12/22 18:02:02;;;;;;;28.60;19.40;;;;;;;;;;5096391;28;20189;-71
2022/12/22 18:04:28;;;;;;;37.50;22.00;;;;;;;;;;5096749;28;20204;-72